createdAt,value
2022-10-01T00:01:49.037Z,12.40
2022-10-01T00:04:15.077Z,12.40
2022-10-01T00:06:41.098Z,12.40
2022-10-01T00:09:07.083Z,12.40
2022-10-01T00:11:33.924Z,12.30
2022-10-01T00:14:01.209Z,12.30
2022-10-01T00:16:29.960Z,12.30
2022-10-01T00:18:57.465Z,12.30
2022-10-01T00:21:27.441Z,12.20
2022-10-01T00:23:58.555Z,12.20
2022-10-01T00:26:28.851Z,12.24
2022-10-01T00:29:02.498Z,12.28
2022-10-01T00:31:30.040Z,12.20
2022-10-01T00:33:58.146Z,12.20
2022-10-01T00:36:25.811Z,12.30
2022-10-01T00:38:51.789Z,12.28
2022-10-01T00:41:19.122Z,12.30
2022-10-01T00:43:49.939Z,12.28
2022-10-01T00:46:38.642Z,12.30
2022-10-01T00:49:20.615Z,12.22
2022-10-01T00:52:03.079Z,12.20
2022-10-01T00:54:57.721Z,12.20
2022-10-01T00:57:26.953Z,12.20
2022-10-01T00:59:56.803Z,12.20
2022-10-01T01:02:22.858Z,12.20
2022-10-01T01:04:48.874Z,12.20
2022-10-01T01:07:15.501Z,12.20
2022-10-01T01:09:46.704Z,12.20
2022-10-01T01:12:24.866Z,12.20
2022-10-01T01:15:16.979Z,12.20
2022-10-01T01:18:14.182Z,12.10
2022-10-01T01:20:51.079Z,12.10
2022-10-01T01:23:16.923Z,12.12
2022-10-01T01:26:35.948Z,12.10
2022-10-01T01:29:10.763Z,12.10
2022-10-01T01:31:45.705Z,12.10
2022-10-01T01:34:17.839Z,12.10
2022-10-01T01:36:52.309Z,12.00
2022-10-01T01:39:20.997Z,11.96
2022-10-01T01:41:56.448Z,11.90
2022-10-01T01:44:27.968Z,11.84
2022-10-01T01:46:55.795Z,11.80
2022-10-01T01:49:22.958Z,11.72
2022-10-01T01:52:15.359Z,11.70
2022-10-01T01:54:44.039Z,11.60
2022-10-01T01:57:12.512Z,11.60
2022-10-01T01:59:41.807Z,11.60
2022-10-01T02:02:16.403Z,11.50
2022-10-01T02:04:58.744Z,11.50
2022-10-01T02:08:07.329Z,11.40
2022-10-01T02:10:51.780Z,11.40
2022-10-01T02:14:00.190Z,11.30
2022-10-01T02:16:47.451Z,11.30
2022-10-01T02:19:43.740Z,11.30
2022-10-01T02:22:17.663Z,11.20
2022-10-01T02:24:57.491Z,11.20
2022-10-01T02:27:32.960Z,11.10
2022-10-01T02:30:07.219Z,11.10
2022-10-01T02:32:36.951Z,11.10
2022-10-01T02:35:06.903Z,11.00
2022-10-01T02:37:35.649Z,11.00
2022-10-01T02:40:04.836Z,11.00
2022-10-01T02:42:33.089Z,10.96
2022-10-01T02:45:02.845Z,10.90
2022-10-01T02:47:38.964Z,10.90
2022-10-01T02:50:08.080Z,10.90
2022-10-01T02:52:43.616Z,10.90
2022-10-01T02:55:22.582Z,10.88
2022-10-01T02:57:49.548Z,10.90
2022-10-01T03:00:21.619Z,10.90
2022-10-01T03:02:49.092Z,10.90
2022-10-01T03:05:16.938Z,10.86
2022-10-01T03:07:43.990Z,10.80
2022-10-01T03:10:11.793Z,10.80
2022-10-01T03:12:43.607Z,10.80
2022-10-01T03:15:10.467Z,10.80
2022-10-01T03:17:37.386Z,10.78
2022-10-01T03:20:05.211Z,10.70
2022-10-01T03:22:31.277Z,10.70
2022-10-01T03:24:57.185Z,10.70
2022-10-01T03:27:23.146Z,10.60
2022-10-01T03:29:49.847Z,10.60
2022-10-01T03:32:16.180Z,10.60
2022-10-01T03:34:42.079Z,10.54
2022-10-01T03:37:08.573Z,10.50
2022-10-01T03:39:35.292Z,10.50
2022-10-01T03:42:03.141Z,10.50
2022-10-01T03:44:29.095Z,10.42
2022-10-01T03:46:55.077Z,10.40
2022-10-01T03:49:21.063Z,10.40
2022-10-01T03:51:47.065Z,10.40
2022-10-01T03:54:13.044Z,10.40
2022-10-01T03:56:42.046Z,10.38
2022-10-01T03:59:10.344Z,10.30
2022-10-01T04:01:37.247Z,10.30
2022-10-01T04:04:04.225Z,10.30
2022-10-01T04:06:30.896Z,10.28
2022-10-01T04:08:56.944Z,10.20
2022-10-01T04:11:23.936Z,10.20
2022-10-01T04:13:50.449Z,10.20
2022-10-01T04:16:16.533Z,10.20
2022-10-01T04:18:43.092Z,10.10
2022-10-01T04:21:09.058Z,10.10
2022-10-01T04:23:34.951Z,10.10
2022-10-01T04:26:02.453Z,10.10
2022-10-01T04:28:30.144Z,10.10
2022-10-01T04:31:14.907Z,10.08
2022-10-01T04:33:41.282Z,10.00
2022-10-01T04:36:07.237Z,10.00
2022-10-01T04:38:34.084Z,10.00
2022-10-01T04:41:00.239Z,10.00
2022-10-01T04:43:26.265Z,10.00
2022-10-01T04:45:52.239Z,10.00
2022-10-01T04:48:18.272Z,9.96
2022-10-01T04:50:44.245Z,9.92
2022-10-01T04:53:10.322Z,9.92
2022-10-01T04:55:36.215Z,9.90
2022-10-01T04:58:02.317Z,9.90
2022-10-01T05:00:28.327Z,9.90
2022-10-01T05:02:54.419Z,9.90
2022-10-01T05:05:23.252Z,9.90
2022-10-01T05:07:49.663Z,9.90
2022-10-01T05:10:21.742Z,9.90
2022-10-01T05:12:48.423Z,9.90
2022-10-01T05:15:16.127Z,9.90
2022-10-01T05:17:42.827Z,9.90
2022-10-01T05:20:19.587Z,9.90
2022-10-01T05:22:46.997Z,9.90
2022-10-01T05:25:13.157Z,9.90
2022-10-01T05:27:40.063Z,9.90
2022-10-01T05:30:11.009Z,9.90
2022-10-01T05:32:37.578Z,9.90
2022-10-01T05:35:06.309Z,9.90
2022-10-01T05:37:33.166Z,9.92
2022-10-01T05:39:59.252Z,9.90
2022-10-01T05:42:25.166Z,10.00
2022-10-01T05:44:51.039Z,10.00
2022-10-01T05:47:17.710Z,10.02
2022-10-01T05:49:43.801Z,10.10
2022-10-01T05:52:11.413Z,10.18
2022-10-01T05:54:37.662Z,10.20
2022-10-01T05:57:05.447Z,10.30
2022-10-01T05:59:32.149Z,10.38
2022-10-01T06:01:58.474Z,10.40
2022-10-01T06:04:24.884Z,10.50
2022-10-01T06:06:53.115Z,10.50
2022-10-01T06:09:19.120Z,10.60
2022-10-01T06:11:46.125Z,10.70
2022-10-01T06:14:12.044Z,10.70
2022-10-01T06:16:37.991Z,10.80
2022-10-01T06:19:04.035Z,10.86
2022-10-01T06:21:30.969Z,10.90
2022-10-01T06:23:57.116Z,11.00
2022-10-01T06:26:23.663Z,11.00
2022-10-01T06:28:50.942Z,11.10
2022-10-01T06:31:18.443Z,11.20
2022-10-01T06:33:44.467Z,11.22
2022-10-01T06:36:10.379Z,11.30
2022-10-01T06:38:36.371Z,11.40
2022-10-01T06:41:13.421Z,11.50
2022-10-01T06:43:39.355Z,11.50
2022-10-01T06:46:06.219Z,11.50
2022-10-01T06:48:34.746Z,11.60
2022-10-01T06:51:00.663Z,11.70
2022-10-01T06:53:27.734Z,11.76
2022-10-01T06:55:54.573Z,11.80
2022-10-01T06:58:26.849Z,11.90
2022-10-01T07:01:02.477Z,12.00
2022-10-01T07:03:30.354Z,12.10
2022-10-01T07:06:04.642Z,12.12
2022-10-01T07:08:30.558Z,12.20
2022-10-01T07:11:01.928Z,12.26
2022-10-01T07:13:27.859Z,12.30
2022-10-01T07:15:53.783Z,12.38
2022-10-01T07:18:20.384Z,12.40
2022-10-01T07:20:46.291Z,12.50
2022-10-01T07:23:14.759Z,12.50
2022-10-01T07:25:42.368Z,12.60
2022-10-01T07:28:17.617Z,12.70
2022-10-01T07:30:56.804Z,12.80
2022-10-01T07:33:22.779Z,12.90
2022-10-01T07:35:48.745Z,13.00
2022-10-01T07:38:14.968Z,13.00
2022-10-01T07:40:41.378Z,13.00
2022-10-01T07:43:08.627Z,13.00
2022-10-01T07:45:34.618Z,13.10
2022-10-01T07:48:02.471Z,13.10
2022-10-01T07:50:29.978Z,13.10
2022-10-01T07:52:58.210Z,13.20
2022-10-01T07:55:26.558Z,13.20
2022-10-01T07:57:54.789Z,13.30
2022-10-01T08:00:23.065Z,13.40
2022-10-01T08:02:53.020Z,13.40
2022-10-01T08:05:22.129Z,13.50
2022-10-01T08:07:49.311Z,13.56
2022-10-01T08:10:18.133Z,13.60
2022-10-01T08:12:44.870Z,13.70
2022-10-01T08:15:14.763Z,13.70
2022-10-01T08:17:41.699Z,13.80
2022-10-01T08:20:12.083Z,13.90
2022-10-01T08:22:41.846Z,13.90
2022-10-01T08:25:09.149Z,14.00
2022-10-01T08:27:35.283Z,14.10
2022-10-01T08:30:01.202Z,14.10
2022-10-01T08:32:27.540Z,14.20
2022-10-01T08:34:56.774Z,14.20
2022-10-01T08:37:28.294Z,14.22
2022-10-01T08:39:55.773Z,14.20
2022-10-01T08:42:49.311Z,14.20
2022-10-01T08:45:25.286Z,14.20
2022-10-01T08:48:05.956Z,14.20
2022-10-01T08:50:44.255Z,14.20
2022-10-01T08:53:28.346Z,14.20
2022-10-01T08:55:55.450Z,14.20
2022-10-01T08:58:29.278Z,14.20
2022-10-01T09:00:55.210Z,14.20
2022-10-01T09:03:21.261Z,14.20
2022-10-01T09:06:13.596Z,14.20
2022-10-01T09:09:26.527Z,14.20
2022-10-01T09:12:02.835Z,14.30
2022-10-01T09:15:15.057Z,14.30
2022-10-01T09:17:50.365Z,14.30
2022-10-01T09:20:52.887Z,14.30
2022-10-01T09:23:28.265Z,14.30
2022-10-01T09:25:58.095Z,14.30
2022-10-01T09:28:29.537Z,14.40
2022-10-01T09:31:22.185Z,14.40
2022-10-01T09:34:14.510Z,14.50
2022-10-01T09:37:14.521Z,14.60
2022-10-01T09:40:14.160Z,14.70
2022-10-01T09:42:40.684Z,14.70
2022-10-01T09:45:12.000Z,14.60
2022-10-01T09:47:38.201Z,14.60
2022-10-01T09:50:05.842Z,14.60
2022-10-01T09:52:38.597Z,14.60
2022-10-01T09:55:11.395Z,14.56
2022-10-01T09:57:44.275Z,14.60
2022-10-01T10:00:25.667Z,14.60
2022-10-01T10:02:54.865Z,14.60
2022-10-01T10:05:27.724Z,14.70
2022-10-01T10:08:33.043Z,14.60
2022-10-01T10:11:02.464Z,14.70
2022-10-01T10:13:41.274Z,14.70
2022-10-01T10:16:27.279Z,14.70
2022-10-01T10:19:10.004Z,14.60
2022-10-01T10:21:37.343Z,14.60
2022-10-01T10:24:18.028Z,14.60
2022-10-01T10:26:57.725Z,14.60
2022-10-01T10:29:31.440Z,14.60
2022-10-01T10:32:01.907Z,14.50
2022-10-01T10:34:37.616Z,14.40
2022-10-01T10:37:18.721Z,14.38
2022-10-01T10:39:50.467Z,14.30
2022-10-01T10:42:22.573Z,14.20
2022-10-01T10:44:53.848Z,14.20
2022-10-01T10:47:21.654Z,14.10
2022-10-01T10:49:54.307Z,14.10
2022-10-01T10:52:35.449Z,14.00
2022-10-01T10:55:21.335Z,14.00
2022-10-01T10:57:47.399Z,14.00
2022-10-01T11:00:23.480Z,14.02
2022-10-01T11:02:59.901Z,14.00
2022-10-01T11:05:31.213Z,14.00
2022-10-01T11:08:02.595Z,14.00
2022-10-01T11:11:05.483Z,14.00
2022-10-01T11:13:54.363Z,13.94
2022-10-01T11:16:48.055Z,13.90
2022-10-01T11:19:51.476Z,13.84
2022-10-01T11:22:39.515Z,13.80
2022-10-01T11:25:32.237Z,13.80
2022-10-01T11:28:17.834Z,13.80
2022-10-01T11:31:22.205Z,13.78
2022-10-01T11:34:21.862Z,13.80
2022-10-01T11:37:13.090Z,13.70
2022-10-01T11:39:42.760Z,13.70
2022-10-01T11:42:19.344Z,13.70
2022-10-01T11:45:02.402Z,13.70
2022-10-01T11:47:36.296Z,13.70
2022-10-01T11:50:13.773Z,13.60
2022-10-01T11:52:57.847Z,13.60
2022-10-01T11:55:54.313Z,13.50
2022-10-01T11:58:50.940Z,13.48
2022-10-01T12:01:42.106Z,13.40
2022-10-01T12:04:33.905Z,13.40
2022-10-01T12:07:12.064Z,13.40
2022-10-01T12:09:49.838Z,13.38
2022-10-01T12:12:34.532Z,13.40
2022-10-01T12:15:18.320Z,13.38
2022-10-01T12:18:21.771Z,13.20
2022-10-01T12:20:53.371Z,13.20
2022-10-01T12:23:24.406Z,13.20
2022-10-01T12:26:23.095Z,13.20
2022-10-01T12:29:20.156Z,13.20
2022-10-01T12:32:18.364Z,13.20
2022-10-01T12:35:12.048Z,13.16
2022-10-01T12:37:44.067Z,13.10
2022-10-01T12:40:34.820Z,13.00
2022-10-01T12:43:39.872Z,13.00
2022-10-01T12:46:25.058Z,13.00
2022-10-01T12:49:09.935Z,13.00
2022-10-01T12:51:42.459Z,12.90
2022-10-01T12:54:49.575Z,13.00
2022-10-01T12:57:40.121Z,12.96
2022-10-01T13:00:20.623Z,12.90
2022-10-01T13:03:14.551Z,12.90
2022-10-01T13:06:26.579Z,12.90
2022-10-01T13:09:01.033Z,12.90
2022-10-01T13:11:50.378Z,12.90
2022-10-01T13:14:17.403Z,12.80
2022-10-01T13:16:55.898Z,12.80
2022-10-01T13:19:26.366Z,12.80
2022-10-01T13:22:32.679Z,12.80
2022-10-01T13:25:29.249Z,12.70
2022-10-01T13:28:19.690Z,12.70
2022-10-01T13:30:59.803Z,12.70
2022-10-01T13:33:31.550Z,12.70
2022-10-01T13:36:01.490Z,12.70
2022-10-01T13:38:38.251Z,12.70
2022-10-01T13:41:17.405Z,12.70
2022-10-01T13:43:58.486Z,12.70
2022-10-01T13:46:31.796Z,12.70
2022-10-01T13:49:29.339Z,12.70
2022-10-01T13:51:56.462Z,12.70
2022-10-01T13:54:47.964Z,12.70
2022-10-01T13:57:38.045Z,12.70
2022-10-01T14:00:16.184Z,12.70
2022-10-01T14:02:57.011Z,12.70
2022-10-01T14:05:36.296Z,12.70
2022-10-01T14:08:13.741Z,12.70
2022-10-01T14:11:07.484Z,12.80
2022-10-01T14:14:03.100Z,12.80
2022-10-01T14:16:30.898Z,12.80
2022-10-01T14:18:57.046Z,12.80
2022-10-01T14:21:36.929Z,12.88
2022-10-01T14:24:24.178Z,12.90
2022-10-01T14:27:14.340Z,12.90
2022-10-01T14:30:20.433Z,13.00
2022-10-01T14:33:16.160Z,13.00
2022-10-01T14:36:04.463Z,13.00
2022-10-01T14:38:30.520Z,13.00
2022-10-01T14:40:56.549Z,13.00
2022-10-01T14:43:30.012Z,13.10
2022-10-01T14:45:56.994Z,13.10
2022-10-01T14:48:26.445Z,13.20
2022-10-01T14:51:05.032Z,13.20
2022-10-01T14:53:40.002Z,13.22
2022-10-01T14:56:11.527Z,13.26
2022-10-01T14:58:48.668Z,13.30
2022-10-01T15:01:23.567Z,13.30
2022-10-01T15:03:52.643Z,13.30
2022-10-01T15:06:29.192Z,13.30
2022-10-01T15:09:11.459Z,13.32
2022-10-01T15:11:43.541Z,13.40
2022-10-01T15:14:18.385Z,13.34
2022-10-01T15:16:44.637Z,13.30
2022-10-01T15:19:17.955Z,13.30
2022-10-01T15:21:51.600Z,13.30
2022-10-01T15:24:46.071Z,13.30
2022-10-01T15:27:17.169Z,13.30
2022-10-01T15:29:44.116Z,13.30
2022-10-01T15:32:16.433Z,13.30
2022-10-01T15:34:52.386Z,13.30
2022-10-01T15:37:26.882Z,13.30
2022-10-01T15:39:54.114Z,13.22
2022-10-01T15:42:32.903Z,13.20
2022-10-01T15:45:07.952Z,13.20
2022-10-01T15:47:38.453Z,13.20
2022-10-01T15:50:10.546Z,13.20
2022-10-01T15:52:53.629Z,13.20
2022-10-01T15:55:27.414Z,13.20
2022-10-01T15:58:06.436Z,13.20
2022-10-01T16:00:59.925Z,13.10
2022-10-01T16:03:30.523Z,13.10
2022-10-01T16:05:59.350Z,13.10
2022-10-01T16:08:33.656Z,13.10
2022-10-01T16:11:23.418Z,13.04
2022-10-01T16:13:52.104Z,13.00
2022-10-01T16:16:24.328Z,13.00
2022-10-01T16:19:27.987Z,13.00
2022-10-01T16:22:33.035Z,13.00
2022-10-01T16:25:06.276Z,12.98
2022-10-01T16:28:04.620Z,12.90
2022-10-01T16:30:33.487Z,12.90
2022-10-01T16:33:03.684Z,12.90
2022-10-01T16:35:34.849Z,12.90
2022-10-01T16:38:05.912Z,12.90
2022-10-01T16:40:38.760Z,12.90
2022-10-01T16:43:06.958Z,12.90
2022-10-01T16:45:37.431Z,12.94
2022-10-01T16:48:16.088Z,12.98
2022-10-01T16:50:45.737Z,13.00
2022-10-01T16:53:15.879Z,13.00
2022-10-01T16:55:43.654Z,13.00
2022-10-01T16:58:10.430Z,13.00
2022-10-01T17:00:37.169Z,13.00
2022-10-01T17:03:13.864Z,13.00
2022-10-01T17:05:39.970Z,13.00
2022-10-01T17:08:11.964Z,13.00
2022-10-01T17:10:45.176Z,13.00
2022-10-01T17:13:13.121Z,13.00
2022-10-01T17:15:39.855Z,13.06
2022-10-01T17:18:05.989Z,13.10
2022-10-01T17:20:33.802Z,13.10
2022-10-01T17:22:59.863Z,13.10
2022-10-01T17:25:33.715Z,13.10
2022-10-01T17:28:02.173Z,13.10
2022-10-01T17:30:30.074Z,13.10
2022-10-01T17:32:59.584Z,13.10
2022-10-01T17:35:27.598Z,13.10
2022-10-01T17:37:53.508Z,13.10
2022-10-01T17:40:20.292Z,13.10
2022-10-01T17:42:46.275Z,13.10
2022-10-01T17:45:14.967Z,13.10
2022-10-01T17:47:46.821Z,13.10
2022-10-01T17:50:14.606Z,13.08
2022-10-01T17:52:41.279Z,13.04
2022-10-01T17:55:08.023Z,13.02
2022-10-01T17:57:33.999Z,13.00
2022-10-01T18:00:00.300Z,13.08
2022-10-01T18:02:43.100Z,13.10
2022-10-01T18:05:14.149Z,13.02
2022-10-01T18:07:41.638Z,13.10
2022-10-01T18:10:11.833Z,13.10
2022-10-01T18:12:37.875Z,13.06
2022-10-01T18:15:04.476Z,13.06
2022-10-01T18:17:36.343Z,13.10
2022-10-01T18:20:07.164Z,13.10
2022-10-01T18:22:37.166Z,13.06
2022-10-01T18:25:06.272Z,13.10
2022-10-01T18:27:32.195Z,13.10
2022-10-01T18:29:58.253Z,13.10
2022-10-01T18:32:28.546Z,13.10
2022-10-01T18:34:59.871Z,13.08
2022-10-01T18:37:40.302Z,13.10
2022-10-01T18:40:19.238Z,13.10
2022-10-01T18:43:12.641Z,13.10
2022-10-01T18:46:12.075Z,13.10
2022-10-01T18:49:02.406Z,13.10
2022-10-01T18:51:50.480Z,13.10
2022-10-01T18:54:39.957Z,13.10
2022-10-01T18:57:25.645Z,13.16
2022-10-01T19:00:33.995Z,13.18
2022-10-01T19:03:30.230Z,13.20
2022-10-01T19:06:13.908Z,13.20
2022-10-01T19:09:07.459Z,13.20
2022-10-01T19:11:59.548Z,13.20
2022-10-01T19:14:45.840Z,13.20
2022-10-01T19:17:52.149Z,13.28
2022-10-01T19:20:48.270Z,13.30
2022-10-01T19:23:52.693Z,13.30
2022-10-01T19:26:42.934Z,13.30
2022-10-01T19:29:56.135Z,13.30
2022-10-01T19:32:26.863Z,13.30
2022-10-01T19:35:03.003Z,13.30
2022-10-01T19:37:51.024Z,13.30
2022-10-01T19:40:20.185Z,13.30
2022-10-01T19:43:19.388Z,13.30
2022-10-01T19:46:00.634Z,13.30
2022-10-01T19:48:44.627Z,13.30
2022-10-01T19:51:13.581Z,13.30
2022-10-01T19:53:45.904Z,13.30
2022-10-01T19:56:22.513Z,13.30
2022-10-01T19:58:48.405Z,13.30
2022-10-01T20:01:36.613Z,13.30
2022-10-01T20:04:10.559Z,13.30
2022-10-01T20:06:41.648Z,13.30
2022-10-01T20:09:22.758Z,13.40
2022-10-01T20:12:03.161Z,13.40
2022-10-01T20:15:11.997Z,13.40
2022-10-01T20:18:12.778Z,13.36
2022-10-01T20:21:06.068Z,13.30
2022-10-01T20:23:46.248Z,13.30
2022-10-01T20:26:47.594Z,13.30
2022-10-01T20:29:25.624Z,13.30
2022-10-01T20:32:25.061Z,13.30
2022-10-01T20:35:18.520Z,13.30
2022-10-01T20:37:56.901Z,13.30
2022-10-01T20:40:37.731Z,13.30
2022-10-01T20:43:27.632Z,13.30
2022-10-01T20:45:55.021Z,13.30
2022-10-01T20:48:29.847Z,13.30
2022-10-01T20:51:05.944Z,13.30
2022-10-01T20:53:40.193Z,13.30
2022-10-01T20:56:25.455Z,13.30
2022-10-01T20:58:54.102Z,13.30
2022-10-01T21:01:25.487Z,13.30
2022-10-01T21:04:08.633Z,13.30
2022-10-01T21:06:45.214Z,13.30
2022-10-01T21:09:21.122Z,13.30
2022-10-01T21:12:01.390Z,13.30
2022-10-01T21:14:49.615Z,13.30
2022-10-01T21:17:23.135Z,13.30
2022-10-01T21:20:31.844Z,13.30
2022-10-01T21:23:27.521Z,13.30
2022-10-01T21:26:13.447Z,13.30
2022-10-01T21:28:53.497Z,13.30
2022-10-01T21:31:45.261Z,13.30
2022-10-01T21:34:21.327Z,13.30
2022-10-01T21:37:04.353Z,13.28
2022-10-01T21:39:32.955Z,13.30
2022-10-01T21:42:43.511Z,13.30
2022-10-01T21:45:35.541Z,13.30
2022-10-01T21:48:32.051Z,13.30
2022-10-01T21:51:15.422Z,13.20
2022-10-01T21:54:17.226Z,13.20
2022-10-01T21:57:09.661Z,13.20
2022-10-01T22:00:17.891Z,13.20
2022-10-01T22:03:24.015Z,13.20
2022-10-01T22:06:25.375Z,13.20
2022-10-01T22:09:03.131Z,13.20
2022-10-01T22:11:35.972Z,13.20
2022-10-01T22:14:19.353Z,13.20
2022-10-01T22:16:55.591Z,13.20
2022-10-01T22:19:38.920Z,13.20
2022-10-01T22:22:14.454Z,13.20
2022-10-01T22:24:50.668Z,13.20
2022-10-01T22:27:58.757Z,13.20
2022-10-01T22:30:32.803Z,13.20
2022-10-01T22:33:11.666Z,13.20
2022-10-01T22:35:58.008Z,13.20
2022-10-01T22:38:53.500Z,13.20
2022-10-01T22:41:36.159Z,13.20
2022-10-01T22:44:13.179Z,13.20
2022-10-01T22:46:53.608Z,13.20
2022-10-01T22:49:41.481Z,13.20
2022-10-01T22:52:14.251Z,13.20
2022-10-01T22:55:01.359Z,13.20
2022-10-01T22:57:58.628Z,13.22
2022-10-01T23:00:25.649Z,13.30
2022-10-01T23:03:15.473Z,13.30
2022-10-01T23:06:20.325Z,13.30
2022-10-01T23:09:01.332Z,13.30
2022-10-01T23:12:10.682Z,13.30
2022-10-01T23:15:05.554Z,13.30
2022-10-01T23:18:25.550Z,13.30
2022-10-01T23:21:16.105Z,13.30
2022-10-01T23:24:27.263Z,13.36
2022-10-01T23:27:10.926Z,13.40
2022-10-01T23:30:11.737Z,13.40
2022-10-01T23:33:06.922Z,13.40
2022-10-01T23:36:06.138Z,13.40
2022-10-01T23:38:31.988Z,13.40
2022-10-01T23:41:09.444Z,13.40
2022-10-01T23:43:46.160Z,13.50
2022-10-01T23:46:32.002Z,13.50
2022-10-01T23:49:35.517Z,13.50
2022-10-01T23:52:30.116Z,13.50
2022-10-01T23:55:40.171Z,13.50
2022-10-01T23:58:10.567Z,13.48
